sensor_id;sensor_type;location;lat;lon;timestamp;temperature;humidity
50738;DHT22;36703;48.154;17.126;2023-05-29T00:09:46;23.20;38.10
50738;DHT22;36703;48.154;17.126;2023-05-29T00:14:59;23.10;38.20
50738;DHT22;36703;48.154;17.126;2023-05-29T00:20:03;23.10;38.20
50738;DHT22;36703;48.154;17.126;2023-05-29T00:24:50;23.10;38.40
50738;DHT22;36703;48.154;17.126;2023-05-29T00:30:41;23.00;38.50
50738;DHT22;36703;48.154;17.126;2023-05-29T00:41:04;22.90;38.40
50738;DHT22;36703;48.154;17.126;2023-05-29T01:09:31;22.80;38.90
50738;DHT22;36703;48.154;17.126;2023-05-29T01:31:58;22.10;49.70
50738;DHT22;36703;48.154;17.126;2023-05-29T01:38:04;21.80;49.20
50738;DHT22;36703;48.154;17.126;2023-05-29T01:43:20;21.70;50.30
50738;DHT22;36703;48.154;17.126;2023-05-29T01:48:45;21.70;50.00
50738;DHT22;36703;48.154;17.126;2023-05-29T02:00:58;21.30;46.80
50738;DHT22;36703;48.154;17.126;2023-05-29T02:12:48;21.30;43.70
50738;DHT22;36703;48.154;17.126;2023-05-29T02:23:57;21.40;43.30
50738;DHT22;36703;48.154;17.126;2023-05-29T02:29:53;21.40;43.20
50738;DHT22;36703;48.154;17.126;2023-05-29T02:52:14;20.70;43.90
50738;DHT22;36703;48.154;17.126;2023-05-29T02:58:08;20.60;43.50
50738;DHT22;36703;48.154;17.126;2023-05-29T03:27:13;20.10;44.50
50738;DHT22;36703;48.154;17.126;2023-05-29T03:32:31;20.10;44.50
50738;DHT22;36703;48.154;17.126;2023-05-29T03:38:20;20.10;44.60
50738;DHT22;36703;48.154;17.126;2023-05-29T03:56:00;20.40;53.40
50738;DHT22;36703;48.154;17.126;2023-05-29T04:01:49;20.40;44.30
50738;DHT22;36703;48.154;17.126;2023-05-29T04:07:16;20.40;55.80
50738;DHT22;36703;48.154;17.126;2023-05-29T04:12:40;20.20;44.60
50738;DHT22;36703;48.154;17.126;2023-05-29T04:24:16;20.50;56.00
50738;DHT22;36703;48.154;17.126;2023-05-29T04:29:11;20.20;45.00
50738;DHT22;36703;48.154;17.126;2023-05-29T04:35:08;20.20;46.60
50738;DHT22;36703;48.154;17.126;2023-05-29T04:40:43;20.30;52.60
50738;DHT22;36703;48.154;17.126;2023-05-29T04:57:26;20.20;58.70
50738;DHT22;36703;48.154;17.126;2023-05-29T05:07:21;20.30;45.60
50738;DHT22;36703;48.154;17.126;2023-05-29T05:13:03;20.50;57.30
50738;DHT22;36703;48.154;17.126;2023-05-29T05:18:07;20.50;45.60
50738;DHT22;36703;48.154;17.126;2023-05-29T05:23:11;20.60;45.60
50738;DHT22;36703;48.154;17.126;2023-05-29T05:34:25;20.60;45.90
50738;DHT22;36703;48.154;17.126;2023-05-29T05:39:55;20.60;45.90
50738;DHT22;36703;48.154;17.126;2023-05-29T05:45:23;20.80;46.10
50738;DHT22;36703;48.154;17.126;2023-05-29T05:51:19;20.80;45.90
50738;DHT22;36703;48.154;17.126;2023-05-29T05:56:10;20.90;55.90
50738;DHT22;36703;48.154;17.126;2023-05-29T06:06:30;20.90;46.10
50738;DHT22;36703;48.154;17.126;2023-05-29T06:11:34;21.00;46.00
50738;DHT22;36703;48.154;17.126;2023-05-29T06:16:21;21.00;46.10
50738;DHT22;36703;48.154;17.126;2023-05-29T06:21:59;21.00;46.20
50738;DHT22;36703;48.154;17.126;2023-05-29T06:27:10;21.30;46.30
50738;DHT22;36703;48.154;17.126;2023-05-29T06:32:21;21.50;46.00
50738;DHT22;36703;48.154;17.126;2023-05-29T06:38:43;21.70;45.70
50738;DHT22;36703;48.154;17.126;2023-05-29T06:44:14;21.70;45.90
50738;DHT22;36703;48.154;17.126;2023-05-29T07:06:54;22.20;45.40
50738;DHT22;36703;48.154;17.126;2023-05-29T07:12:26;22.20;45.70
50738;DHT22;36703;48.154;17.126;2023-05-29T07:18:06;22.40;45.60
50738;DHT22;36703;48.154;17.126;2023-05-29T07:23:14;22.60;45.80
50738;DHT22;36703;48.154;17.126;2023-05-29T07:28:00;22.70;63.80
50738;DHT22;36703;48.154;17.126;2023-05-29T07:32:44;22.50;45.30
50738;DHT22;36703;48.154;17.126;2023-05-29T07:38:32;22.40;45.50
50738;DHT22;36703;48.154;17.126;2023-05-29T07:43:10;22.60;45.60
50738;DHT22;36703;48.154;17.126;2023-05-29T07:55:09;22.80;45.40
50738;DHT22;36703;48.154;17.126;2023-05-29T08:29:28;23.80;63.20
50738;DHT22;36703;48.154;17.126;2023-05-29T08:35:33;24.10;58.40
50738;DHT22;36703;48.154;17.126;2023-05-29T08:41:07;24.30;61.70
50738;DHT22;36703;48.154;17.126;2023-05-29T08:46:37;25.50;61.70
50738;DHT22;36703;48.154;17.126;2023-05-29T08:57:58;24.70;60.00
50738;DHT22;36703;48.154;17.126;2023-05-29T09:03:40;24.90;60.20
50738;DHT22;36703;48.154;17.126;2023-05-29T09:25:19;25.60;58.90
50738;DHT22;36703;48.154;17.126;2023-05-29T09:29:45;25.70;58.90
50738;DHT22;36703;48.154;17.126;2023-05-29T09:35:02;25.70;58.50
50738;DHT22;36703;48.154;17.126;2023-05-29T09:40:35;25.80;57.70
50738;DHT22;36703;48.154;17.126;2023-05-29T09:45:54;25.90;57.90
50738;DHT22;36703;48.154;17.126;2023-05-29T09:51:53;26.10;57.50
50738;DHT22;36703;48.154;17.126;2023-05-29T10:13:47;26.60;46.20
50738;DHT22;36703;48.154;17.126;2023-05-29T10:19:44;26.90;42.90
50738;DHT22;36703;48.154;17.126;2023-05-29T10:25:22;27.40;41.80
50738;DHT22;36703;48.154;17.126;2023-05-29T10:43:07;28.90;55.30
50738;DHT22;36703;48.154;17.126;2023-05-29T12:35:46;28.60;34.40
50738;DHT22;36703;48.154;17.126;2023-05-29T12:40:09;28.70;34.40
50738;DHT22;36703;48.154;17.126;2023-05-29T12:44:21;28.80;34.00
50738;DHT22;36703;48.154;17.126;2023-05-29T12:48:27;28.80;34.50
50738;DHT22;36703;48.154;17.126;2023-05-29T12:52:28;28.90;33.60
50738;DHT22;36703;48.154;17.126;2023-05-29T12:56:30;28.90;33.30
50738;DHT22;36703;48.154;17.126;2023-05-29T13:00:35;28.90;33.00
50738;DHT22;36703;48.154;17.126;2023-05-29T13:04:37;28.90;32.70
50738;DHT22;36703;48.154;17.126;2023-05-29T13:08:39;29.10;32.70
50738;DHT22;36703;48.154;17.126;2023-05-29T13:12:41;29.10;32.30
50738;DHT22;36703;48.154;17.126;2023-05-29T13:16:43;29.10;32.10
50738;DHT22;36703;48.154;17.126;2023-05-29T13:20:44;29.20;32.00
50738;DHT22;36703;48.154;17.126;2023-05-29T13:24:46;29.20;31.90
50738;DHT22;36703;48.154;17.126;2023-05-29T13:28:48;29.20;31.90
50738;DHT22;36703;48.154;17.126;2023-05-29T13:32:50;29.20;31.90
50738;DHT22;36703;48.154;17.126;2023-05-29T13:36:53;29.20;32.00
50738;DHT22;36703;48.154;17.126;2023-05-29T13:40:54;29.20;31.90
50738;DHT22;36703;48.154;17.126;2023-05-29T13:44:56;29.20;31.70
50738;DHT22;36703;48.154;17.126;2023-05-29T13:48:58;29.20;31.50
50738;DHT22;36703;48.154;17.126;2023-05-29T13:53:00;29.10;31.40
50738;DHT22;36703;48.154;17.126;2023-05-29T13:57:02;29.10;31.40
50738;DHT22;36703;48.154;17.126;2023-05-29T14:01:04;29.00;31.20
50738;DHT22;36703;48.154;17.126;2023-05-29T14:05:06;29.00;31.10
50738;DHT22;36703;48.154;17.126;2023-05-29T14:09:08;29.00;31.00
50738;DHT22;36703;48.154;17.126;2023-05-29T14:13:11;29.00;31.10
50738;DHT22;36703;48.154;17.126;2023-05-29T14:17:14;29.00;31.10
50738;DHT22;36703;48.154;17.126;2023-05-29T14:21:16;29.00;31.20
50738;DHT22;36703;48.154;17.126;2023-05-29T14:25:18;28.90;31.00
50738;DHT22;36703;48.154;17.126;2023-05-29T14:29:19;28.80;30.80
50738;DHT22;36703;48.154;17.126;2023-05-29T14:33:21;28.80;30.90
50738;DHT22;36703;48.154;17.126;2023-05-29T14:37:22;28.80;30.90
50738;DHT22;36703;48.154;17.126;2023-05-29T14:41:24;28.70;31.00
50738;DHT22;36703;48.154;17.126;2023-05-29T14:45:26;28.70;31.10
50738;DHT22;36703;48.154;17.126;2023-05-29T14:49:28;28.70;31.30
50738;DHT22;36703;48.154;17.126;2023-05-29T14:53:33;28.60;31.30
50738;DHT22;36703;48.154;17.126;2023-05-29T14:57:34;28.60;31.50
50738;DHT22;36703;48.154;17.126;2023-05-29T15:01:36;28.50;31.50
50738;DHT22;36703;48.154;17.126;2023-05-29T15:05:37;28.50;31.60
50738;DHT22;36703;48.154;17.126;2023-05-29T15:09:39;28.50;31.70
50738;DHT22;36703;48.154;17.126;2023-05-29T15:13:41;28.40;31.60
50738;DHT22;36703;48.154;17.126;2023-05-29T15:17:43;28.40;31.70
50738;DHT22;36703;48.154;17.126;2023-05-29T15:21:47;28.40;31.70
50738;DHT22;36703;48.154;17.126;2023-05-29T15:25:49;28.30;31.50
50738;DHT22;36703;48.154;17.126;2023-05-29T15:29:51;28.30;31.50
50738;DHT22;36703;48.154;17.126;2023-05-29T15:33:53;28.20;31.50
50738;DHT22;36703;48.154;17.126;2023-05-29T15:37:54;28.20;31.60
50738;DHT22;36703;48.154;17.126;2023-05-29T15:41:56;28.20;31.60
50738;DHT22;36703;48.154;17.126;2023-05-29T15:45:58;28.10;31.60
50738;DHT22;36703;48.154;17.126;2023-05-29T15:49:59;28.10;31.50
50738;DHT22;36703;48.154;17.126;2023-05-29T15:54:01;28.10;31.50
50738;DHT22;36703;48.154;17.126;2023-05-29T15:58:02;28.10;31.40
50738;DHT22;36703;48.154;17.126;2023-05-29T16:02:04;28.00;31.20
50738;DHT22;36703;48.154;17.126;2023-05-29T16:06:06;28.00;31.10
50738;DHT22;36703;48.154;17.126;2023-05-29T16:10:08;28.00;31.10
50738;DHT22;36703;48.154;17.126;2023-05-29T16:14:10;28.00;31.10
50738;DHT22;36703;48.154;17.126;2023-05-29T16:18:12;27.90;30.90
50738;DHT22;36703;48.154;17.126;2023-05-29T16:22:13;27.90;30.90
50738;DHT22;36703;48.154;17.126;2023-05-29T16:26:15;27.90;30.70
50738;DHT22;36703;48.154;17.126;2023-05-29T16:30:17;27.80;30.60
50738;DHT22;36703;48.154;17.126;2023-05-29T16:34:18;27.80;30.60
50738;DHT22;36703;48.154;17.126;2023-05-29T16:38:20;27.80;30.40
50738;DHT22;36703;48.154;17.126;2023-05-29T16:42:22;27.70;30.20
50738;DHT22;36703;48.154;17.126;2023-05-29T16:46:23;27.70;30.10
50738;DHT22;36703;48.154;17.126;2023-05-29T16:50:26;27.70;30.00
50738;DHT22;36703;48.154;17.126;2023-05-29T16:54:28;27.70;30.00
50738;DHT22;36703;48.154;17.126;2023-05-29T16:58:30;27.70;30.00
50738;DHT22;36703;48.154;17.126;2023-05-29T17:02:32;27.60;30.00
50738;DHT22;36703;48.154;17.126;2023-05-29T17:06:33;27.60;30.00
50738;DHT22;36703;48.154;17.126;2023-05-29T17:10:36;27.60;30.10
50738;DHT22;36703;48.154;17.126;2023-05-29T17:14:37;27.60;30.20
50738;DHT22;36703;48.154;17.126;2023-05-29T17:18:39;27.60;30.40
50738;DHT22;36703;48.154;17.126;2023-05-29T17:22:40;27.50;30.60
50738;DHT22;36703;48.154;17.126;2023-05-29T17:26:42;27.50;30.90
50738;DHT22;36703;48.154;17.126;2023-05-29T17:30:43;27.50;31.20
50738;DHT22;36703;48.154;17.126;2023-05-29T17:34:45;27.40;31.30
50738;DHT22;36703;48.154;17.126;2023-05-29T17:38:47;27.30;31.50
50738;DHT22;36703;48.154;17.126;2023-05-29T17:42:51;27.30;31.60
50738;DHT22;36703;48.154;17.126;2023-05-29T17:46:52;27.30;31.70
50738;DHT22;36703;48.154;17.126;2023-05-29T17:50:54;27.20;31.70
50738;DHT22;36703;48.154;17.126;2023-05-29T17:54:56;27.20;31.80
50738;DHT22;36703;48.154;17.126;2023-05-29T17:58:57;27.10;31.80
50738;DHT22;36703;48.154;17.126;2023-05-29T18:02:59;27.10;31.90
50738;DHT22;36703;48.154;17.126;2023-05-29T18:07:00;27.10;31.90
50738;DHT22;36703;48.154;17.126;2023-05-29T18:11:02;27.00;31.90
50738;DHT22;36703;48.154;17.126;2023-05-29T18:15:04;27.00;31.90
50738;DHT22;36703;48.154;17.126;2023-05-29T18:19:06;26.90;31.80
50738;DHT22;36703;48.154;17.126;2023-05-29T18:23:08;26.90;31.80
50738;DHT22;36703;48.154;17.126;2023-05-29T18:27:10;26.80;31.80
50738;DHT22;36703;48.154;17.126;2023-05-29T18:31:12;26.80;31.80
50738;DHT22;36703;48.154;17.126;2023-05-29T18:35:13;26.80;31.90
50738;DHT22;36703;48.154;17.126;2023-05-29T18:39:15;26.80;31.90
50738;DHT22;36703;48.154;17.126;2023-05-29T18:43:16;26.80;31.90
50738;DHT22;36703;48.154;17.126;2023-05-29T18:47:19;26.70;32.00
50738;DHT22;36703;48.154;17.126;2023-05-29T18:51:20;26.70;32.10
50738;DHT22;36703;48.154;17.126;2023-05-29T18:55:22;26.70;32.50
50738;DHT22;36703;48.154;17.126;2023-05-29T18:59:23;26.70;32.90
50738;DHT22;36703;48.154;17.126;2023-05-29T19:03:25;26.70;33.10
50738;DHT22;36703;48.154;17.126;2023-05-29T19:07:27;26.70;33.20
50738;DHT22;36703;48.154;17.126;2023-05-29T19:11:28;26.70;33.40
50738;DHT22;36703;48.154;17.126;2023-05-29T19:15:30;26.60;33.50
50738;DHT22;36703;48.154;17.126;2023-05-29T19:19:31;26.60;33.60
50738;DHT22;36703;48.154;17.126;2023-05-29T19:23:33;26.60;33.60
50738;DHT22;36703;48.154;17.126;2023-05-29T19:27:35;26.60;33.70
50738;DHT22;36703;48.154;17.126;2023-05-29T19:31:37;26.60;33.70
50738;DHT22;36703;48.154;17.126;2023-05-29T19:35:39;26.60;33.80
50738;DHT22;36703;48.154;17.126;2023-05-29T19:39:40;26.50;33.80
50738;DHT22;36703;48.154;17.126;2023-05-29T19:43:42;26.40;33.90
50738;DHT22;36703;48.154;17.126;2023-05-29T19:47:44;26.40;33.90
50738;DHT22;36703;48.154;17.126;2023-05-29T19:51:45;26.40;33.90
50738;DHT22;36703;48.154;17.126;2023-05-29T19:55:47;26.40;33.80
50738;DHT22;36703;48.154;17.126;2023-05-29T19:59:49;26.40;33.90
50738;DHT22;36703;48.154;17.126;2023-05-29T20:03:54;26.40;33.90
50738;DHT22;36703;48.154;17.126;2023-05-29T20:07:56;26.40;33.90
50738;DHT22;36703;48.154;17.126;2023-05-29T20:11:58;26.40;33.90
50738;DHT22;36703;48.154;17.126;2023-05-29T20:15:59;26.30;33.80
50738;DHT22;36703;48.154;17.126;2023-05-29T20:20:02;26.30;33.90
50738;DHT22;36703;48.154;17.126;2023-05-29T20:24:05;26.10;33.90
50738;DHT22;36703;48.154;17.126;2023-05-29T20:28:08;26.10;34.00
50738;DHT22;36703;48.154;17.126;2023-05-29T20:32:10;26.00;34.10
50738;DHT22;36703;48.154;17.126;2023-05-29T20:36:12;26.00;34.30
50738;DHT22;36703;48.154;17.126;2023-05-29T20:40:13;25.90;34.50
50738;DHT22;36703;48.154;17.126;2023-05-29T20:44:15;25.80;34.60
50738;DHT22;36703;48.154;17.126;2023-05-29T20:48:19;25.80;34.50
50738;DHT22;36703;48.154;17.126;2023-05-29T20:52:20;25.80;34.60
50738;DHT22;36703;48.154;17.126;2023-05-29T20:56:22;25.70;34.60
50738;DHT22;36703;48.154;17.126;2023-05-29T21:00:24;25.60;34.80
50738;DHT22;36703;48.154;17.126;2023-05-29T21:04:26;25.50;34.90
50738;DHT22;36703;48.154;17.126;2023-05-29T21:08:28;25.40;35.00
50738;DHT22;36703;48.154;17.126;2023-05-29T21:12:31;25.30;34.90
50738;DHT22;36703;48.154;17.126;2023-05-29T21:16:33;25.10;34.80
50738;DHT22;36703;48.154;17.126;2023-05-29T21:20:34;25.10;35.00
50738;DHT22;36703;48.154;17.126;2023-05-29T21:24:36;25.00;35.00
50738;DHT22;36703;48.154;17.126;2023-05-29T21:28:38;25.00;35.20
50738;DHT22;36703;48.154;17.126;2023-05-29T21:32:41;25.00;35.30
50738;DHT22;36703;48.154;17.126;2023-05-29T21:36:43;25.00;35.50
50738;DHT22;36703;48.154;17.126;2023-05-29T21:40:45;25.10;35.60
50738;DHT22;36703;48.154;17.126;2023-05-29T21:44:48;25.10;35.60
50738;DHT22;36703;48.154;17.126;2023-05-29T21:48:51;25.10;35.60
50738;DHT22;36703;48.154;17.126;2023-05-29T21:52:52;25.00;35.80
50738;DHT22;36703;48.154;17.126;2023-05-29T21:56:54;25.00;35.90
50738;DHT22;36703;48.154;17.126;2023-05-29T22:00:55;25.10;36.00
50738;DHT22;36703;48.154;17.126;2023-05-29T22:04:58;25.10;36.10
50738;DHT22;36703;48.154;17.126;2023-05-29T22:08:59;25.10;36.00
50738;DHT22;36703;48.154;17.126;2023-05-29T22:13:01;25.00;35.90
50738;DHT22;36703;48.154;17.126;2023-05-29T22:17:03;24.90;35.90
50738;DHT22;36703;48.154;17.126;2023-05-29T22:21:05;24.90;36.10
50738;DHT22;36703;48.154;17.126;2023-05-29T22:25:07;24.90;36.10
50738;DHT22;36703;48.154;17.126;2023-05-29T22:29:09;24.80;36.10
50738;DHT22;36703;48.154;17.126;2023-05-29T22:33:10;24.80;36.20
50738;DHT22;36703;48.154;17.126;2023-05-29T22:37:13;24.80;36.20
50738;DHT22;36703;48.154;17.126;2023-05-29T22:41:15;24.70;36.40
50738;DHT22;36703;48.154;17.126;2023-05-29T22:45:16;24.60;36.60
50738;DHT22;36703;48.154;17.126;2023-05-29T22:49:18;24.50;36.90
50738;DHT22;36703;48.154;17.126;2023-05-29T22:53:19;24.40;37.20
50738;DHT22;36703;48.154;17.126;2023-05-29T22:57:23;24.30;37.50
50738;DHT22;36703;48.154;17.126;2023-05-29T23:01:25;24.10;37.80
50738;DHT22;36703;48.154;17.126;2023-05-29T23:05:26;23.90;38.20
50738;DHT22;36703;48.154;17.126;2023-05-29T23:09:28;23.70;38.60
50738;DHT22;36703;48.154;17.126;2023-05-29T23:13:29;23.60;38.80
50738;DHT22;36703;48.154;17.126;2023-05-29T23:17:31;23.60;38.90
50738;DHT22;36703;48.154;17.126;2023-05-29T23:21:32;23.60;38.90
50738;DHT22;36703;48.154;17.126;2023-05-29T23:25:34;23.60;38.90
50738;DHT22;36703;48.154;17.126;2023-05-29T23:29:35;23.60;39.00
50738;DHT22;36703;48.154;17.126;2023-05-29T23:33:37;23.60;39.00
50738;DHT22;36703;48.154;17.126;2023-05-29T23:37:39;23.60;39.10
50738;DHT22;36703;48.154;17.126;2023-05-29T23:41:41;23.40;39.20
50738;DHT22;36703;48.154;17.126;2023-05-29T23:45:43;23.40;39.50
50738;DHT22;36703;48.154;17.126;2023-05-29T23:49:44;23.40;39.50
50738;DHT22;36703;48.154;17.126;2023-05-29T23:53:46;23.30;39.60
50738;DHT22;36703;48.154;17.126;2023-05-29T23:57:48;23.20;39.70
